createdAt,value
2023-02-03T00:01:57.311Z,95303.84
2023-02-03T00:04:24.037Z,95315.53
2023-02-03T00:06:51.523Z,95318.69
2023-02-03T00:09:19.073Z,95320.28
2023-02-03T00:11:45.907Z,95318.16
2023-02-03T00:14:12.617Z,95320.75
2023-02-03T00:16:39.361Z,95315.47
2023-02-03T00:19:06.131Z,95316.00
2023-02-03T00:21:33.416Z,95307.50
2023-02-03T00:24:00.124Z,95310.16
2023-02-03T00:26:28.749Z,95313.88
2023-02-03T00:28:55.755Z,95308.81
2023-02-03T00:31:24.593Z,95311.22
2023-02-03T00:33:56.276Z,95305.91
2023-02-03T00:36:24.097Z,95307.25
2023-02-03T00:38:50.850Z,95314.91
2023-02-03T00:41:18.592Z,95322.88
2023-02-03T00:43:45.325Z,95316.53
2023-02-03T00:46:12.301Z,95319.16
2023-02-03T00:48:39.082Z,95323.41
2023-02-03T00:51:06.170Z,95330.06
2023-02-03T00:53:33.222Z,95331.44
2023-02-03T00:56:01.002Z,95333.03
2023-02-03T00:58:27.699Z,95343.91
2023-02-03T01:00:57.818Z,95336.75
2023-02-03T01:03:25.326Z,95335.16
2023-02-03T01:05:52.254Z,95333.84
2023-02-03T01:08:19.837Z,95336.22
2023-02-03T01:10:46.615Z,95341.81
2023-02-03T01:13:13.292Z,95325.66
2023-02-03T01:15:47.868Z,95323.81
2023-02-03T01:18:14.919Z,95317.97
2023-02-03T01:20:41.595Z,95315.31
2023-02-03T01:23:08.320Z,95315.31
2023-02-03T01:25:36.251Z,95318.22
2023-02-03T01:28:03.024Z,95305.50
2023-02-03T01:30:30.043Z,95281.63
2023-02-03T01:32:57.264Z,95285.88
2023-02-03T01:35:25.444Z,95280.03
2023-02-03T01:37:52.178Z,95277.38
2023-02-03T01:40:19.226Z,95273.69
2023-02-03T01:42:46.003Z,95265.72
2023-02-03T01:45:13.697Z,95284.78
2023-02-03T01:47:48.547Z,95299.94
2023-02-03T01:50:21.092Z,95304.44
2023-02-03T01:52:52.776Z,95288.00
2023-02-03T01:55:27.989Z,95282.72
2023-02-03T01:58:02.686Z,95286.97
2023-02-03T02:00:29.918Z,95286.19
2023-02-03T02:02:59.740Z,95279.53
2023-02-03T02:05:41.092Z,95277.69
2023-02-03T02:08:09.443Z,95266.03
2023-02-03T02:10:36.368Z,95261.78
2023-02-03T02:13:05.720Z,95269.47
2023-02-03T02:15:50.012Z,95267.88
2023-02-03T02:18:30.431Z,95264.97
2023-02-03T02:21:40.578Z,95261.81
2023-02-03T02:24:38.092Z,95257.56
2023-02-03T02:27:22.358Z,95259.16
2023-02-03T02:30:07.876Z,95253.03
2023-02-03T02:32:59.551Z,95248.25
2023-02-03T02:36:22.507Z,95246.69
2023-02-03T02:39:14.478Z,95244.53
2023-02-03T02:41:49.263Z,95218.03
2023-02-03T02:44:25.261Z,95225.97
2023-02-03T02:46:55.672Z,95216.16
2023-02-03T02:49:30.059Z,95215.63
2023-02-03T02:52:00.183Z,95211.13
2023-02-03T02:54:29.762Z,95208.72
2023-02-03T02:57:01.076Z,95198.13
2023-02-03T02:59:29.296Z,95184.59
2023-02-03T03:01:56.897Z,95189.13
2023-02-03T03:04:27.568Z,95201.31
2023-02-03T03:07:05.968Z,95224.94
2023-02-03T03:09:39.507Z,95221.47
2023-02-03T03:12:15.023Z,95216.72
2023-02-03T03:14:47.120Z,95228.13
2023-02-03T03:17:23.469Z,95229.19
2023-02-03T03:19:55.996Z,95244.03
2023-02-03T03:22:27.551Z,95241.13
2023-02-03T03:25:06.493Z,95244.06
2023-02-03T03:27:44.057Z,95226.00
2023-02-03T03:30:26.398Z,95241.41
2023-02-03T03:32:53.241Z,95232.91
2023-02-03T03:35:19.987Z,95228.41
2023-02-03T03:37:59.411Z,95233.94
2023-02-03T03:40:33.574Z,95231.56
2023-02-03T03:43:05.929Z,95231.84
2023-02-03T03:45:41.509Z,95244.03
2023-02-03T03:48:26.941Z,95247.75
2023-02-03T03:50:58.648Z,95257.81
2023-02-03T03:53:29.204Z,95271.09
2023-02-03T03:56:00.389Z,95273.47
2023-02-03T03:58:30.934Z,95278.00
2023-02-03T04:01:01.556Z,95282.78
2023-02-03T04:03:38.022Z,95297.13
2023-02-03T04:06:05.309Z,95277.75
2023-02-03T04:08:32.045Z,95270.06
2023-02-03T04:10:58.707Z,95281.47
2023-02-03T04:13:25.492Z,95282.00
2023-02-03T04:15:52.241Z,95279.34
2023-02-03T04:18:18.936Z,95278.03
2023-02-03T04:20:45.589Z,95265.31
2023-02-03T04:23:12.347Z,95260.00
2023-02-03T04:25:39.036Z,95265.03
2023-02-03T04:28:06.866Z,95261.88
2023-02-03T04:30:33.568Z,95269.28
2023-02-03T04:33:00.437Z,95247.25
2023-02-03T04:35:27.146Z,95243.78
2023-02-03T04:37:53.802Z,95240.91
2023-02-03T04:40:20.516Z,95245.94
2023-02-03T04:42:47.200Z,95252.56
2023-02-03T04:45:13.883Z,95257.63
2023-02-03T04:47:40.641Z,95261.34
2023-02-03T04:50:07.757Z,95238.78
2023-02-03T04:52:34.405Z,95243.28
2023-02-03T04:55:01.111Z,95248.06
2023-02-03T04:57:27.771Z,95250.97
2023-02-03T04:59:54.413Z,95237.44
2023-02-03T05:02:21.131Z,95242.75
2023-02-03T05:04:47.779Z,95241.69
2023-02-03T05:07:14.418Z,95231.59
2023-02-03T05:09:41.057Z,95217.53
2023-02-03T05:12:07.775Z,95209.31
2023-02-03T05:14:34.358Z,95203.75
2023-02-03T05:17:01.021Z,95213.03
2023-02-03T05:19:27.640Z,95222.56
2023-02-03T05:21:54.275Z,95205.06
2023-02-03T05:24:20.886Z,95218.31
2023-02-03T05:26:47.545Z,95214.88
2023-02-03T05:29:14.153Z,95219.38
2023-02-03T05:31:40.867Z,95220.69
2023-02-03T05:34:07.781Z,95204.78
2023-02-03T05:36:34.430Z,95206.38
2023-02-03T05:39:01.104Z,95206.63
2023-02-03T05:41:46.299Z,95201.34
2023-02-03T05:44:12.936Z,95210.63
2023-02-03T05:46:39.592Z,95230.25
2023-02-03T05:49:06.370Z,95248.03
2023-02-03T05:51:33.045Z,95239.78
2023-02-03T05:53:59.675Z,95254.38
2023-02-03T05:56:26.635Z,95240.84
2023-02-03T05:58:53.591Z,95238.75
2023-02-03T06:01:20.741Z,95237.13
2023-02-03T06:03:48.311Z,95237.94
2023-02-03T06:06:16.390Z,95234.22
2023-02-03T06:08:43.687Z,95219.09
2023-02-03T06:11:11.367Z,95232.63
2023-02-03T06:13:38.359Z,95223.34
2023-02-03T06:16:05.224Z,95221.75
2023-02-03T06:18:32.019Z,95226.50
2023-02-03T06:20:58.684Z,95231.81
2023-02-03T06:23:25.430Z,95239.75
2023-02-03T06:25:52.203Z,95244.81
2023-02-03T06:28:18.995Z,95261.50
2023-02-03T06:30:45.736Z,95250.63
2023-02-03T06:33:12.521Z,95260.19
2023-02-03T06:35:39.146Z,95252.47
2023-02-03T06:38:05.862Z,95256.44
2023-02-03T06:40:32.551Z,95249.00
2023-02-03T06:42:59.194Z,95241.59
2023-02-03T06:45:25.992Z,95235.22
2023-02-03T06:47:52.733Z,95240.78
2023-02-03T06:50:19.488Z,95240.03
2023-02-03T06:52:46.190Z,95247.19
2023-02-03T06:55:12.846Z,95256.19
2023-02-03T06:57:47.023Z,95259.38
2023-02-03T07:00:18.595Z,95237.34
2023-02-03T07:02:46.039Z,95233.91
2023-02-03T07:05:12.693Z,95232.56
2023-02-03T07:07:39.594Z,95237.34
2023-02-03T07:10:07.206Z,95220.38
2023-02-03T07:12:33.929Z,95200.97
2023-02-03T07:15:00.588Z,95211.84
2023-02-03T07:17:27.324Z,95207.84
2023-02-03T07:19:53.951Z,95202.56
2023-02-03T07:22:20.595Z,95219.25
2023-02-03T07:24:47.221Z,95212.38
2023-02-03T07:27:13.885Z,95209.16
2023-02-03T07:29:40.585Z,95204.94
2023-02-03T07:32:07.335Z,95186.63
2023-02-03T07:34:34.044Z,95198.84
2023-02-03T07:37:00.670Z,95198.88
2023-02-03T07:39:27.396Z,95195.16
2023-02-03T07:41:54.069Z,95194.66
2023-02-03T07:44:22.607Z,95192.00
2023-02-03T07:46:49.351Z,95200.75
2023-02-03T07:49:16.265Z,95207.38
2023-02-03T07:51:42.959Z,95213.75
2023-02-03T07:54:09.677Z,95218.78
2023-02-03T07:56:36.509Z,95222.22
2023-02-03T07:59:03.540Z,95230.19
2023-02-03T08:01:31.452Z,95240.00
2023-02-03T08:03:58.235Z,95251.41
2023-02-03T08:06:24.916Z,95265.47
2023-02-03T08:08:51.594Z,95271.88
2023-02-03T08:11:18.376Z,95272.66
2023-02-03T08:13:45.025Z,95263.41
2023-02-03T08:16:11.712Z,95263.13
2023-02-03T08:18:38.407Z,95271.88
2023-02-03T08:21:05.326Z,95267.13
2023-02-03T08:23:32.056Z,95272.97
2023-02-03T08:25:58.690Z,95260.78
2023-02-03T08:28:25.458Z,95239.28
2023-02-03T08:30:52.414Z,95245.41
2023-02-03T08:33:19.140Z,95246.75
2023-02-03T08:35:48.828Z,95240.38
2023-02-03T08:38:15.947Z,95240.38
2023-02-03T08:40:43.025Z,95244.88
2023-02-03T08:43:09.685Z,95240.63
2023-02-03T08:45:36.416Z,95244.38
2023-02-03T08:48:03.163Z,95251.00
2023-02-03T08:50:29.991Z,95249.94
2023-02-03T08:52:56.839Z,95249.41
2023-02-03T08:55:24.624Z,95253.66
2023-02-03T08:57:51.353Z,95267.47
2023-02-03T09:00:18.393Z,95266.69
2023-02-03T09:02:45.044Z,95277.00
2023-02-03T09:05:11.843Z,95264.53
2023-02-03T09:07:38.492Z,95256.31
2023-02-03T09:10:05.477Z,95256.31
2023-02-03T09:12:32.111Z,95268.81
2023-02-03T09:14:58.742Z,95282.59
2023-02-03T09:17:25.432Z,95262.97
2023-02-03T09:19:52.092Z,95263.22
2023-02-03T09:22:18.730Z,95256.06
2023-02-03T09:24:45.531Z,95247.31
2023-02-03T09:27:12.729Z,95245.72
2023-02-03T09:29:39.463Z,95228.72
2023-02-03T09:32:08.974Z,95247.84
2023-02-03T09:34:36.025Z,95241.19
2023-02-03T09:37:04.428Z,95244.66
2023-02-03T09:39:31.454Z,95252.09
2023-02-03T09:42:43.918Z,95256.88
2023-02-03T09:45:16.476Z,95251.03
2023-02-03T09:47:44.662Z,95257.94
2023-02-03T09:50:19.871Z,95257.66
2023-02-03T09:52:47.865Z,95260.03
2023-02-03T09:55:26.622Z,95258.72
2023-02-03T09:58:19.543Z,95254.19
2023-02-03T10:00:48.600Z,95266.44
2023-02-03T10:03:33.392Z,95257.41
2023-02-03T10:06:31.179Z,95260.06
2023-02-03T10:09:22.820Z,95264.81
2023-02-03T10:12:01.629Z,95262.72
2023-02-03T10:14:31.183Z,95260.06
2023-02-03T10:17:26.335Z,95241.19
2023-02-03T10:20:05.267Z,95245.69
2023-02-03T10:22:37.917Z,95238.78
2023-02-03T10:25:20.810Z,95240.88
2023-02-03T10:27:49.509Z,95244.34
2023-02-03T10:30:23.621Z,95259.75
2023-02-03T10:33:06.176Z,95256.28
2023-02-03T10:35:36.716Z,95254.97
2023-02-03T10:38:05.984Z,95247.78
2023-02-03T10:40:32.623Z,95257.38
2023-02-03T10:43:22.301Z,95254.47
2023-02-03T10:45:48.938Z,95269.59
2023-02-03T10:48:18.333Z,95270.13
2023-02-03T10:50:50.291Z,95270.41
2023-02-03T10:53:35.917Z,95261.91
2023-02-03T10:56:09.454Z,95264.81
2023-02-03T10:58:38.477Z,95253.63
2023-02-03T11:01:14.150Z,95237.97
2023-02-03T11:03:55.334Z,95240.88
2023-02-03T11:06:21.964Z,95252.56
2023-02-03T11:08:50.201Z,95260.00
2023-02-03T11:11:34.320Z,95252.84
2023-02-03T11:14:03.945Z,95243.53
2023-02-03T11:16:33.449Z,95236.09
2023-02-03T11:19:02.745Z,95228.91
2023-02-03T11:21:38.479Z,95215.09
2023-02-03T11:24:11.663Z,95223.28
2023-02-03T11:26:45.434Z,95218.75
2023-02-03T11:29:23.912Z,95218.47
2023-02-03T11:31:53.403Z,95209.97
2023-02-03T11:34:28.858Z,95202.53
2023-02-03T11:36:55.628Z,95197.75
2023-02-03T11:39:29.027Z,95206.78
2023-02-03T11:41:56.767Z,95195.34
2023-02-03T11:44:29.183Z,95199.34
2023-02-03T11:46:57.914Z,95203.53
2023-02-03T11:49:45.518Z,95195.81
2023-02-03T11:52:30.697Z,95185.63
2023-02-03T11:55:18.870Z,95185.41
2023-02-03T11:58:04.729Z,95176.94
2023-02-03T12:00:43.160Z,95183.34
2023-02-03T12:03:29.977Z,95180.16
2023-02-03T12:06:14.752Z,95174.34
2023-02-03T12:08:53.548Z,95154.09
2023-02-03T12:11:37.411Z,95145.59
2023-02-03T12:14:39.875Z,95155.41
2023-02-03T12:17:15.659Z,95147.75
2023-02-03T12:20:01.213Z,95142.91
2023-02-03T12:22:35.853Z,95144.78
2023-02-03T12:25:37.100Z,95140.25
2023-02-03T12:28:33.766Z,95146.63
2023-02-03T12:31:09.577Z,95132.25
2023-02-03T12:33:45.793Z,95149.00
2023-02-03T12:36:17.681Z,95120.28
2023-02-03T12:38:59.324Z,95110.16
2023-02-03T12:41:37.431Z,95104.50
2023-02-03T12:44:39.210Z,95097.41
2023-02-03T12:47:27.139Z,95109.09
2023-02-03T12:49:59.521Z,95081.78
2023-02-03T12:52:26.789Z,95090.59
2023-02-03T12:55:15.295Z,95072.00
2023-02-03T12:57:55.026Z,95063.53
2023-02-03T13:00:28.174Z,95069.44
2023-02-03T13:03:17.943Z,95070.78
2023-02-03T13:06:09.330Z,95075.03
2023-02-03T13:09:15.386Z,95068.13
2023-02-03T13:12:12.524Z,95067.59
2023-02-03T13:14:51.704Z,95061.50
2023-02-03T13:17:28.033Z,95058.59
2023-02-03T13:20:17.188Z,95070.00
2023-02-03T13:22:43.839Z,95081.41
2023-02-03T13:25:25.997Z,95080.59
2023-02-03T13:28:02.308Z,95063.59
2023-02-03T13:30:50.653Z,95056.41
2023-02-03T13:33:38.495Z,95044.66
2023-02-03T13:36:38.315Z,95043.66
2023-02-03T13:39:44.481Z,95056.97
2023-02-03T13:42:21.559Z,95055.63
2023-02-03T13:44:52.956Z,95051.09
2023-02-03T13:47:31.348Z,95042.59
2023-02-03T13:50:04.188Z,95027.75
2023-02-03T13:52:45.672Z,95025.09
2023-02-03T13:55:46.308Z,95028.84
2023-02-03T13:58:25.323Z,95033.66
2023-02-03T14:00:51.904Z,95035.81
2023-02-03T14:03:25.812Z,95018.56
2023-02-03T14:05:58.055Z,95032.13
2023-02-03T14:08:30.374Z,95036.09
2023-02-03T14:11:15.721Z,95043.28
2023-02-03T14:13:42.464Z,95032.19
2023-02-03T14:16:24.697Z,95039.88
2023-02-03T14:18:51.594Z,95034.34
2023-02-03T14:21:24.658Z,95038.56
2023-02-03T14:24:07.404Z,95045.75
2023-02-03T14:26:44.567Z,95043.34
2023-02-03T14:29:33.366Z,95044.69
2023-02-03T14:32:01.481Z,95051.88
2023-02-03T14:34:34.936Z,95052.66
2023-02-03T14:37:25.235Z,95041.22
2023-02-03T14:40:23.498Z,95050.53
2023-02-03T14:43:09.335Z,95024.81
2023-02-03T14:46:26.607Z,95020.03
2023-02-03T14:48:56.361Z,95010.22
2023-02-03T14:52:04.411Z,95014.19
2023-02-03T14:54:54.367Z,95038.31
2023-02-03T14:57:32.866Z,95054.50
2023-02-03T15:00:05.807Z,95031.69
2023-02-03T15:02:34.442Z,95015.53
2023-02-03T15:05:13.623Z,95026.69
2023-02-03T15:07:46.578Z,95031.69
2023-02-03T15:10:22.268Z,95026.16
2023-02-03T15:12:50.243Z,95034.59
2023-02-03T15:15:26.149Z,95048.41
2023-02-03T15:17:55.572Z,95033.25
2023-02-03T15:20:33.216Z,95049.69
2023-02-03T15:23:00.829Z,95034.84
2023-02-03T15:25:30.847Z,95035.38
2023-02-03T15:28:19.411Z,95030.59
2023-02-03T15:30:50.366Z,95043.81
2023-02-03T15:33:21.860Z,95022.09
2023-02-03T15:35:53.234Z,95011.47
2023-02-03T15:38:36.409Z,95029.78
2023-02-03T15:41:07.516Z,95016.78
2023-02-03T15:43:42.051Z,95012.81
2023-02-03T15:46:24.235Z,95000.56
2023-02-03T15:49:03.672Z,95044.66
2023-02-03T15:51:36.263Z,95043.81
2023-02-03T15:54:14.096Z,95044.91
2023-02-03T15:56:54.806Z,95035.31
2023-02-03T15:59:31.376Z,95045.94
2023-02-03T16:02:01.023Z,95043.56
2023-02-03T16:04:28.301Z,95048.34
2023-02-03T16:06:56.469Z,95046.22
2023-02-03T16:09:33.913Z,95042.25
2023-02-03T16:12:15.799Z,95040.16
2023-02-03T16:14:43.559Z,95011.22
2023-02-03T16:17:27.491Z,95035.38
2023-02-03T16:20:12.489Z,95031.16
2023-02-03T16:22:44.319Z,95031.69
2023-02-03T16:25:13.890Z,95047.13
2023-02-03T16:27:40.877Z,95033.31
2023-02-03T16:30:26.193Z,95047.41
2023-02-03T16:33:30.879Z,95025.34
2023-02-03T16:36:19.816Z,95039.16
2023-02-03T16:39:05.651Z,95032.28
2023-02-03T16:41:51.301Z,95036.53
2023-02-03T16:44:37.111Z,95038.66
2023-02-03T16:47:22.792Z,95052.97
2023-02-03T16:50:08.170Z,95051.91
2023-02-03T16:52:34.831Z,95037.06
2023-02-03T16:55:01.447Z,95030.44
2023-02-03T16:57:28.106Z,95021.44
2023-02-03T16:59:55.138Z,95043.44
2023-02-03T17:02:21.863Z,95035.75
2023-02-03T17:04:48.554Z,95011.88
2023-02-03T17:07:15.243Z,95020.09
2023-02-03T17:09:41.882Z,95037.63
2023-02-03T17:12:08.551Z,95040.25
2023-02-03T17:14:35.193Z,95039.19
2023-02-03T17:17:01.879Z,95017.41
2023-02-03T17:19:28.494Z,95011.56
2023-02-03T17:21:56.039Z,95008.91
2023-02-03T17:24:22.705Z,95013.16
2023-02-03T17:26:50.443Z,95034.38
2023-02-03T17:29:17.139Z,94987.66
2023-02-03T17:31:43.803Z,95025.63
2023-02-03T17:34:10.443Z,95021.38
2023-02-03T17:36:37.085Z,95014.19
2023-02-03T17:55:33.207Z,95033.25
2023-02-03T17:58:00.130Z,95031.16
2023-02-03T18:00:27.157Z,95048.66
2023-02-03T18:02:53.797Z,95023.72
2023-02-03T18:05:20.426Z,95024.75
2023-02-03T18:10:18.667Z,95032.47
2023-02-03T18:12:45.344Z,95013.59
2023-02-03T18:15:12.009Z,95039.91
2023-02-03T18:17:38.776Z,95028.75
2023-02-03T18:20:05.943Z,95058.50
2023-02-03T18:22:34.545Z,95033.00
2023-02-03T18:25:01.184Z,95038.56
2023-02-03T18:27:27.807Z,95023.44
2023-02-03T18:29:54.411Z,95031.09
2023-02-03T18:32:21.099Z,95051.00
2023-02-03T18:34:47.718Z,95033.75
2023-02-03T18:37:14.403Z,95044.38
2023-02-03T18:39:41.013Z,95036.41
2023-02-03T18:42:07.810Z,95036.16
2023-02-03T18:44:34.680Z,95062.41
2023-02-03T18:47:07.715Z,95065.59
2023-02-03T18:49:36.416Z,95062.94
2023-02-03T18:52:04.293Z,95077.81
2023-02-03T18:54:30.944Z,95070.63
2023-02-03T18:56:59.047Z,95081.53
2023-02-03T18:59:26.497Z,95091.09
2023-02-03T19:01:53.448Z,95103.56
2023-02-03T19:04:20.493Z,95085.78
2023-02-03T19:06:47.708Z,95084.75
2023-02-03T19:09:17.864Z,95070.91
2023-02-03T19:11:44.860Z,95089.50
2023-02-03T19:14:13.045Z,95080.47
2023-02-03T19:16:39.878Z,95095.88
2023-02-03T19:19:06.499Z,95070.91
2023-02-03T19:21:33.192Z,95086.31
2023-02-03T19:23:59.837Z,95072.50
2023-02-03T19:26:27.957Z,95091.09
2023-02-03T19:28:55.875Z,95086.88
2023-02-03T19:31:22.809Z,95070.63
2023-02-03T19:33:49.615Z,95081.53
2023-02-03T19:36:16.411Z,95094.28
2023-02-03T19:38:43.068Z,95094.28
2023-02-03T19:41:11.700Z,95080.47
2023-02-03T19:43:40.120Z,95074.88
2023-02-03T19:46:07.733Z,95109.94
2023-02-03T19:48:34.964Z,95112.06
2023-02-03T19:51:01.974Z,95116.06
2023-02-03T19:53:28.642Z,95107.28
2023-02-03T19:55:55.294Z,95104.91
2023-02-03T19:58:24.052Z,95114.72
2023-02-03T20:00:50.995Z,95117.13
2023-02-03T20:03:18.271Z,95126.16
2023-02-03T20:05:45.310Z,95124.84
2023-02-03T20:08:14.551Z,95130.66
2023-02-03T20:10:44.450Z,95128.00
2023-02-03T20:13:14.762Z,95122.16
2023-02-03T20:15:42.284Z,95125.63
2023-02-03T20:18:09.018Z,95115.53
2023-02-03T20:20:36.487Z,95136.25
2023-02-03T20:23:03.245Z,95117.38
2023-02-03T20:25:30.099Z,95124.81
2023-02-03T20:27:58.282Z,95137.03
2023-02-03T20:30:25.544Z,95120.31
2023-02-03T20:32:54.625Z,95127.47
2023-02-03T20:35:23.953Z,95117.91
2023-02-03T20:37:51.043Z,95119.25
2023-02-03T20:40:22.930Z,95117.91
2023-02-03T20:42:51.238Z,95130.41
2023-02-03T20:45:19.411Z,95139.97
2023-02-03T20:47:46.574Z,95145.81
2023-02-03T20:50:19.895Z,95143.94
2023-02-03T20:52:50.881Z,95137.59
2023-02-03T20:55:19.982Z,95158.03
2023-02-03T20:57:50.287Z,95139.44
2023-02-03T21:00:23.653Z,95147.41
2023-02-03T21:03:09.507Z,95128.03
2023-02-03T21:05:42.184Z,95158.03
2023-02-03T21:08:17.875Z,95142.63
2023-02-03T21:10:45.879Z,95137.88
2023-02-03T21:13:27.292Z,95141.59
2023-02-03T21:15:56.651Z,95134.44
2023-02-03T21:18:32.387Z,95126.47
2023-02-03T21:20:59.826Z,95142.94
2023-02-03T21:23:35.660Z,95129.13
2023-02-03T21:26:06.752Z,95139.47
2023-02-03T21:28:33.387Z,95132.03
2023-02-03T21:31:00.055Z,95128.06
2023-02-03T21:33:43.828Z,95123.03
2023-02-03T21:36:18.442Z,95097.00
2023-02-03T21:38:48.667Z,95106.56
2023-02-03T21:41:18.563Z,95108.94
2023-02-03T21:43:47.815Z,95101.25
2023-02-03T21:46:43.131Z,95110.53
2023-02-03T21:49:15.212Z,95111.88
2023-02-03T21:51:42.672Z,95110.81
2023-02-03T21:54:41.635Z,95121.44
2023-02-03T21:57:13.562Z,95116.66
2023-02-03T21:59:49.140Z,95123.56
2023-02-03T22:02:33.377Z,95114.50
2023-02-03T22:05:00.586Z,95119.56
2023-02-03T22:07:27.226Z,95111.06
2023-02-03T22:09:53.888Z,95112.41
2023-02-03T22:12:20.582Z,95107.63
2023-02-03T22:14:47.199Z,95101.78
2023-02-03T22:17:15.046Z,95112.41
2023-02-03T22:19:41.639Z,95127.81
2023-02-03T22:22:08.268Z,95122.75
2023-02-03T22:24:34.985Z,95135.22
2023-02-03T22:27:01.751Z,95142.41
2023-02-03T22:29:28.430Z,95135.75
2023-02-03T22:31:55.199Z,95128.34
2023-02-03T22:34:23.342Z,95153.81
2023-02-03T22:36:50.066Z,95159.13
2023-02-03T22:39:16.732Z,95157.28
2023-02-03T22:41:43.367Z,95166.56
2023-02-03T22:44:15.986Z,95164.44
2023-02-03T22:46:42.658Z,95181.19
2023-02-03T22:49:09.388Z,95180.13
2023-02-03T22:51:36.075Z,95172.69
2023-02-03T22:54:02.710Z,95179.31
2023-02-03T22:56:29.382Z,95184.38
2023-02-03T22:58:56.025Z,95173.22
2023-02-03T23:01:22.664Z,95165.25
2023-02-03T23:03:49.260Z,95171.34
2023-02-03T23:06:15.875Z,95178.78
2023-02-03T23:08:42.544Z,95168.16
2023-02-03T23:11:09.170Z,95164.19
2023-02-03T23:13:35.899Z,95161.00
2023-02-03T23:16:02.617Z,95157.81
2023-02-03T23:18:29.276Z,95156.47
2023-02-03T23:20:56.021Z,95167.91
2023-02-03T23:23:22.673Z,95171.88
2023-02-03T23:25:49.290Z,95171.34
2023-02-03T23:28:16.046Z,95167.63
2023-02-03T23:30:42.758Z,95172.41
2023-02-03T23:33:09.470Z,95152.50
2023-02-03T23:35:49.526Z,95171.88
2023-02-03T23:38:17.755Z,95176.13
2023-02-03T23:40:45.041Z,95178.53
2023-02-03T23:43:11.968Z,95175.34
2023-02-03T23:45:38.773Z,95181.72
2023-02-03T23:48:06.200Z,95196.81
2023-02-03T23:50:33.362Z,95187.81
2023-02-03T23:53:00.218Z,95182.50
2023-02-03T23:55:26.844Z,95199.75
2023-02-03T23:57:53.517Z,95190.16
